sensor_id;sensor_type;location;lat;lon;timestamp;pressure;altitude;pressure_sealevel;temperature;humidity
9746;BME280;4912;50.836;12.958;2024-01-30T00:02:21;99123.19;;;8.79;42.75
9746;BME280;4912;50.836;12.958;2024-01-30T00:04:52;99124.03;;;8.76;42.93
9746;BME280;4912;50.836;12.958;2024-01-30T00:07:23;99129.56;;;8.76;42.83
9746;BME280;4912;50.836;12.958;2024-01-30T00:09:56;99124.88;;;8.73;43.48
9746;BME280;4912;50.836;12.958;2024-01-30T00:12:27;99128.78;;;8.76;43.01
9746;BME280;4912;50.836;12.958;2024-01-30T00:14:59;99135.84;;;8.77;43.63
9746;BME280;4912;50.836;12.958;2024-01-30T00:17:31;99127.22;;;8.75;43.69
9746;BME280;4912;50.836;12.958;2024-01-30T00:20:03;99134.78;;;8.71;44.46
9746;BME280;4912;50.836;12.958;2024-01-30T00:22:37;99131.47;;;8.59;44.50
9746;BME280;4912;50.836;12.958;2024-01-30T00:25:11;99134.94;;;8.40;45.00
9746;BME280;4912;50.836;12.958;2024-01-30T00:27:41;99133.19;;;8.27;46.29
9746;BME280;4912;50.836;12.958;2024-01-30T00:30:13;99126.34;;;8.11;46.73
9746;BME280;4912;50.836;12.958;2024-01-30T00:32:44;99135.94;;;8.03;47.44
9746;BME280;4912;50.836;12.958;2024-01-30T00:35:15;99129.88;;;7.89;48.61
9746;BME280;4912;50.836;12.958;2024-01-30T00:37:45;99132.34;;;7.79;47.73
9746;BME280;4912;50.836;12.958;2024-01-30T00:40:19;99133.03;;;7.60;49.36
9746;BME280;4912;50.836;12.958;2024-01-30T00:42:50;99134.03;;;7.47;49.67
9746;BME280;4912;50.836;12.958;2024-01-30T00:45:21;99135.31;;;7.38;50.33
9746;BME280;4912;50.836;12.958;2024-01-30T00:47:52;99131.00;;;7.37;49.47
9746;BME280;4912;50.836;12.958;2024-01-30T00:50:22;99124.59;;;7.44;48.55
9746;BME280;4912;50.836;12.958;2024-01-30T00:52:53;99127.81;;;7.39;49.78
9746;BME280;4912;50.836;12.958;2024-01-30T00:55:29;99124.44;;;7.28;51.48
9746;BME280;4912;50.836;12.958;2024-01-30T00:58:00;99127.56;;;7.30;49.50
9746;BME280;4912;50.836;12.958;2024-01-30T01:00:32;99128.75;;;7.29;50.14
9746;BME280;4912;50.836;12.958;2024-01-30T01:03:03;99123.88;;;7.40;49.48
9746;BME280;4912;50.836;12.958;2024-01-30T01:05:34;99114.75;;;7.47;49.08
9746;BME280;4912;50.836;12.958;2024-01-30T01:08:05;99126.81;;;7.56;48.78
9746;BME280;4912;50.836;12.958;2024-01-30T01:10:41;99121.59;;;7.62;48.88
9746;BME280;4912;50.836;12.958;2024-01-30T01:13:14;99113.41;;;7.58;48.41
9746;BME280;4912;50.836;12.958;2024-01-30T01:15:45;99125.53;;;7.61;48.86
9746;BME280;4912;50.836;12.958;2024-01-30T01:18:16;99114.13;;;7.62;48.92
9746;BME280;4912;50.836;12.958;2024-01-30T01:20:47;99117.66;;;7.63;49.61
9746;BME280;4912;50.836;12.958;2024-01-30T01:23:18;99114.50;;;7.64;48.79
9746;BME280;4912;50.836;12.958;2024-01-30T01:25:51;99112.47;;;7.68;49.16
9746;BME280;4912;50.836;12.958;2024-01-30T01:28:26;99114.97;;;7.59;49.57
9746;BME280;4912;50.836;12.958;2024-01-30T01:30:59;99116.97;;;7.55;49.49
9746;BME280;4912;50.836;12.958;2024-01-30T01:33:33;99114.22;;;7.55;50.34
9746;BME280;4912;50.836;12.958;2024-01-30T01:36:05;99113.13;;;7.49;50.96
9746;BME280;4912;50.836;12.958;2024-01-30T01:38:36;99102.41;;;7.28;51.80
9746;BME280;4912;50.836;12.958;2024-01-30T01:41:09;99101.47;;;7.11;52.64
9746;BME280;4912;50.836;12.958;2024-01-30T01:43:39;99109.31;;;7.13;51.40
9746;BME280;4912;50.836;12.958;2024-01-30T01:46:10;99100.72;;;7.07;51.99
9746;BME280;4912;50.836;12.958;2024-01-30T01:48:41;99099.53;;;7.08;51.68
9746;BME280;4912;50.836;12.958;2024-01-30T01:51:13;99102.19;;;7.15;51.19
9746;BME280;4912;50.836;12.958;2024-01-30T01:53:43;99106.28;;;7.04;52.15
9746;BME280;4912;50.836;12.958;2024-01-30T01:56:17;99103.59;;;6.96;52.24
9746;BME280;4912;50.836;12.958;2024-01-30T01:58:50;99108.44;;;6.89;53.74
9746;BME280;4912;50.836;12.958;2024-01-30T02:01:20;99102.56;;;6.87;53.47
9746;BME280;4912;50.836;12.958;2024-01-30T02:03:52;99104.53;;;6.86;53.44
9746;BME280;4912;50.836;12.958;2024-01-30T02:06:23;99102.97;;;6.85;52.85
9746;BME280;4912;50.836;12.958;2024-01-30T02:08:54;99109.66;;;6.84;53.32
9746;BME280;4912;50.836;12.958;2024-01-30T02:11:28;99098.78;;;6.74;53.96
9746;BME280;4912;50.836;12.958;2024-01-30T02:14:02;99100.41;;;6.68;54.37
9746;BME280;4912;50.836;12.958;2024-01-30T02:16:33;99105.78;;;6.78;53.61
9746;BME280;4912;50.836;12.958;2024-01-30T02:19:04;99100.94;;;6.89;52.83
9746;BME280;4912;50.836;12.958;2024-01-30T02:21:38;99102.41;;;6.97;53.10
9746;BME280;4912;50.836;12.958;2024-01-30T02:24:16;99104.75;;;6.99;52.97
9746;BME280;4912;50.836;12.958;2024-01-30T02:26:47;99096.91;;;6.97;53.02
9746;BME280;4912;50.836;12.958;2024-01-30T02:29:17;99098.56;;;6.91;53.17
9746;BME280;4912;50.836;12.958;2024-01-30T02:31:48;99100.53;;;6.91;53.32
9746;BME280;4912;50.836;12.958;2024-01-30T02:34:19;99100.13;;;6.92;53.68
9746;BME280;4912;50.836;12.958;2024-01-30T02:36:53;99094.94;;;6.98;53.37
9746;BME280;4912;50.836;12.958;2024-01-30T02:39:26;99104.78;;;6.95;54.35
9746;BME280;4912;50.836;12.958;2024-01-30T02:41:57;99100.84;;;6.96;54.16
9746;BME280;4912;50.836;12.958;2024-01-30T02:44:27;99101.16;;;7.02;54.09
9746;BME280;4912;50.836;12.958;2024-01-30T02:46:58;99090.53;;;7.04;53.63
9746;BME280;4912;50.836;12.958;2024-01-30T02:49:29;99098.44;;;7.02;53.91
9746;BME280;4912;50.836;12.958;2024-01-30T02:52:05;99088.19;;;7.03;54.19
9746;BME280;4912;50.836;12.958;2024-01-30T02:54:36;99092.13;;;7.02;54.33
9746;BME280;4912;50.836;12.958;2024-01-30T02:57:07;99088.25;;;6.99;54.50
9746;BME280;4912;50.836;12.958;2024-01-30T02:59:38;99088.41;;;6.88;55.18
9746;BME280;4912;50.836;12.958;2024-01-30T03:02:08;99086.97;;;6.77;55.65
9746;BME280;4912;50.836;12.958;2024-01-30T03:04:40;99086.63;;;6.71;56.06
9746;BME280;4912;50.836;12.958;2024-01-30T03:07:14;99083.88;;;6.71;56.25
9746;BME280;4912;50.836;12.958;2024-01-30T03:09:44;99087.81;;;6.70;56.56
9746;BME280;4912;50.836;12.958;2024-01-30T03:12:15;99083.19;;;6.60;57.08
9746;BME280;4912;50.836;12.958;2024-01-30T03:14:46;99081.66;;;6.59;56.79
9746;BME280;4912;50.836;12.958;2024-01-30T03:17:17;99078.91;;;6.59;56.91
9746;BME280;4912;50.836;12.958;2024-01-30T03:19:48;99080.09;;;6.58;56.54
9746;BME280;4912;50.836;12.958;2024-01-30T03:22:21;99078.59;;;6.50;56.84
9746;BME280;4912;50.836;12.958;2024-01-30T03:24:52;99068.44;;;6.47;57.17
9746;BME280;4912;50.836;12.958;2024-01-30T03:27:24;99078.66;;;6.46;57.18
9746;BME280;4912;50.836;12.958;2024-01-30T03:29:56;99077.09;;;6.45;57.39
9746;BME280;4912;50.836;12.958;2024-01-30T03:32:26;99073.97;;;6.43;57.67
9746;BME280;4912;50.836;12.958;2024-01-30T03:34:57;99073.19;;;6.43;57.83
9746;BME280;4912;50.836;12.958;2024-01-30T03:37:33;99066.47;;;6.47;57.55
9746;BME280;4912;50.836;12.958;2024-01-30T03:40:05;99073.94;;;6.47;57.46
9746;BME280;4912;50.836;12.958;2024-01-30T03:42:36;99066.53;;;6.40;57.78
9746;BME280;4912;50.836;12.958;2024-01-30T03:45:08;99073.28;;;6.36;58.39
9746;BME280;4912;50.836;12.958;2024-01-30T03:47:39;99070.16;;;6.34;58.45
9746;BME280;4912;50.836;12.958;2024-01-30T03:50:10;99073.69;;;6.31;59.12
9746;BME280;4912;50.836;12.958;2024-01-30T03:52:43;99067.13;;;6.21;59.19
9746;BME280;4912;50.836;12.958;2024-01-30T03:55:17;99069.94;;;6.18;59.13
9746;BME280;4912;50.836;12.958;2024-01-30T03:57:49;99064.03;;;6.15;59.16
9746;BME280;4912;50.836;12.958;2024-01-30T04:00:20;99069.25;;;6.06;59.09
9746;BME280;4912;50.836;12.958;2024-01-30T04:02:51;99065.72;;;6.02;58.93
9746;BME280;4912;50.836;12.958;2024-01-30T04:05:21;99066.13;;;6.01;59.09
9746;BME280;4912;50.836;12.958;2024-01-30T04:07:55;99068.19;;;5.93;59.80
9746;BME280;4912;50.836;12.958;2024-01-30T04:10:25;99065.88;;;5.88;59.87
9746;BME280;4912;50.836;12.958;2024-01-30T04:12:56;99064.66;;;5.89;59.83
9746;BME280;4912;50.836;12.958;2024-01-30T04:15:27;99060.75;;;5.90;60.28
9746;BME280;4912;50.836;12.958;2024-01-30T04:17:58;99064.31;;;5.87;60.44
9746;BME280;4912;50.836;12.958;2024-01-30T04:20:29;99065.84;;;5.85;60.36
9746;BME280;4912;50.836;12.958;2024-01-30T04:23:02;99058.03;;;5.83;60.20
9746;BME280;4912;50.836;12.958;2024-01-30T04:25:33;99063.94;;;5.78;60.54
9746;BME280;4912;50.836;12.958;2024-01-30T04:28:04;99064.72;;;5.82;60.06
9746;BME280;4912;50.836;12.958;2024-01-30T04:30:35;99063.59;;;5.76;60.63
9746;BME280;4912;50.836;12.958;2024-01-30T04:33:06;99055.41;;;5.69;61.60
9746;BME280;4912;50.836;12.958;2024-01-30T04:35:36;99048.13;;;5.45;62.39
9746;BME280;4912;50.836;12.958;2024-01-30T04:38:10;99060.28;;;5.47;62.86
9746;BME280;4912;50.836;12.958;2024-01-30T04:40:41;99048.56;;;5.40;63.45
9746;BME280;4912;50.836;12.958;2024-01-30T04:43:12;99052.50;;;5.39;63.30
9746;BME280;4912;50.836;12.958;2024-01-30T04:45:43;99045.06;;;5.35;63.83
9746;BME280;4912;50.836;12.958;2024-01-30T04:48:13;99051.31;;;5.36;63.76
9746;BME280;4912;50.836;12.958;2024-01-30T04:50:44;99049.34;;;5.40;63.17
9746;BME280;4912;50.836;12.958;2024-01-30T04:53:17;99047.00;;;5.39;63.55
9746;BME280;4912;50.836;12.958;2024-01-30T04:55:48;99042.28;;;5.39;63.74
9746;BME280;4912;50.836;12.958;2024-01-30T04:58:18;99043.88;;;5.40;64.14
9746;BME280;4912;50.836;12.958;2024-01-30T05:00:49;99039.13;;;5.44;63.80
9746;BME280;4912;50.836;12.958;2024-01-30T05:03:20;99044.16;;;5.53;63.50
9746;BME280;4912;50.836;12.958;2024-01-30T05:05:51;99045.78;;;5.47;63.09
9746;BME280;4912;50.836;12.958;2024-01-30T05:08:25;99050.53;;;5.39;63.49
9746;BME280;4912;50.836;12.958;2024-01-30T05:10:55;99045.44;;;5.38;63.89
9746;BME280;4912;50.836;12.958;2024-01-30T05:13:26;99045.06;;;5.35;63.86
9746;BME280;4912;50.836;12.958;2024-01-30T05:15:56;99045.81;;;5.36;63.89
9746;BME280;4912;50.836;12.958;2024-01-30T05:18:27;99045.03;;;5.39;64.05
9746;BME280;4912;50.836;12.958;2024-01-30T05:20:58;99038.81;;;5.35;63.99
9746;BME280;4912;50.836;12.958;2024-01-30T05:23:31;99041.13;;;5.36;64.54
9746;BME280;4912;50.836;12.958;2024-01-30T05:26:02;99041.91;;;5.41;64.11
9746;BME280;4912;50.836;12.958;2024-01-30T05:28:32;99036.38;;;5.48;62.85
9746;BME280;4912;50.836;12.958;2024-01-30T05:31:03;99041.00;;;5.54;62.25
9746;BME280;4912;50.836;12.958;2024-01-30T05:33:34;99032.75;;;5.54;63.13
9746;BME280;4912;50.836;12.958;2024-01-30T05:36:05;99040.66;;;5.49;63.65
9746;BME280;4912;50.836;12.958;2024-01-30T05:38:42;99041.41;;;5.53;63.18
9746;BME280;4912;50.836;12.958;2024-01-30T05:41:13;99042.59;;;5.48;63.57
9746;BME280;4912;50.836;12.958;2024-01-30T05:43:43;99041.84;;;5.48;63.57
9746;BME280;4912;50.836;12.958;2024-01-30T05:46:15;99041.06;;;5.47;63.52
9746;BME280;4912;50.836;12.958;2024-01-30T05:48:49;99040.28;;;5.47;63.34
9746;BME280;4912;50.836;12.958;2024-01-30T05:51:19;99038.97;;;5.62;62.31
9746;BME280;4912;50.836;12.958;2024-01-30T05:53:53;99042.50;;;5.62;62.42
9746;BME280;4912;50.836;12.958;2024-01-30T05:56:23;99046.44;;;5.61;61.92
9746;BME280;4912;50.836;12.958;2024-01-30T05:58:55;99045.28;;;5.59;62.01
9746;BME280;4912;50.836;12.958;2024-01-30T06:01:25;99044.09;;;5.60;61.98
9746;BME280;4912;50.836;12.958;2024-01-30T06:03:56;99048.38;;;5.64;61.61
9746;BME280;4912;50.836;12.958;2024-01-30T06:06:27;99042.84;;;5.68;61.03
9746;BME280;4912;50.836;12.958;2024-01-30T06:09:00;99046.00;;;5.70;61.05
9746;BME280;4912;50.836;12.958;2024-01-30T06:11:31;99043.19;;;5.73;61.25
9746;BME280;4912;50.836;12.958;2024-01-30T06:14:01;99044.38;;;5.72;60.93
9746;BME280;4912;50.836;12.958;2024-01-30T06:16:32;99048.34;;;5.68;60.85
9746;BME280;4912;50.836;12.958;2024-01-30T06:19:03;99055.78;;;5.71;60.34
9746;BME280;4912;50.836;12.958;2024-01-30T06:21:33;99050.25;;;5.74;60.90
9746;BME280;4912;50.836;12.958;2024-01-30T06:24:08;99049.53;;;5.70;59.38
9746;BME280;4912;50.836;12.958;2024-01-30T06:26:38;99055.69;;;5.89;57.62
9746;BME280;4912;50.836;12.958;2024-01-30T06:29:09;99056.34;;;6.00;57.99
9746;BME280;4912;50.836;12.958;2024-01-30T06:31:43;99052.66;;;6.13;57.19
9746;BME280;4912;50.836;12.958;2024-01-30T06:34:13;99044.75;;;6.19;56.36
9746;BME280;4912;50.836;12.958;2024-01-30T06:36:44;99047.84;;;6.25;56.31
9746;BME280;4912;50.836;12.958;2024-01-30T06:39:17;99045.34;;;6.37;56.33
9746;BME280;4912;50.836;12.958;2024-01-30T06:41:48;99054.31;;;6.45;55.83
9746;BME280;4912;50.836;12.958;2024-01-30T06:44:19;99054.16;;;6.59;55.61
9746;BME280;4912;50.836;12.958;2024-01-30T06:46:49;99055.28;;;6.65;55.04
9746;BME280;4912;50.836;12.958;2024-01-30T06:49:20;99058.03;;;6.65;54.83
9746;BME280;4912;50.836;12.958;2024-01-30T06:51:51;99064.66;;;6.68;54.93
9746;BME280;4912;50.836;12.958;2024-01-30T06:54:25;99057.97;;;6.69;54.53
9746;BME280;4912;50.836;12.958;2024-01-30T06:56:55;99059.81;;;6.79;54.45
9746;BME280;4912;50.836;12.958;2024-01-30T06:59:26;99060.13;;;6.84;54.10
9746;BME280;4912;50.836;12.958;2024-01-30T07:01:57;99064.44;;;6.85;53.65
9746;BME280;4912;50.836;12.958;2024-01-30T07:04:27;99062.78;;;6.91;53.50
9746;BME280;4912;50.836;12.958;2024-01-30T07:06:59;99077.59;;;7.01;52.92
9746;BME280;4912;50.836;12.958;2024-01-30T07:09:33;99078.69;;;7.07;52.46
9746;BME280;4912;50.836;12.958;2024-01-30T07:12:04;99086.47;;;7.16;51.87
9746;BME280;4912;50.836;12.958;2024-01-30T07:14:35;99088.19;;;7.33;51.47
9746;BME280;4912;50.836;12.958;2024-01-30T07:17:06;99089.13;;;7.50;50.96
9746;BME280;4912;50.836;12.958;2024-01-30T07:19:36;99091.88;;;7.76;49.59
9746;BME280;4912;50.836;12.958;2024-01-30T07:22:08;99079.19;;;8.06;49.75
9746;BME280;4912;50.836;12.958;2024-01-30T07:24:44;99083.38;;;8.14;49.74
9746;BME280;4912;50.836;12.958;2024-01-30T07:27:16;99081.19;;;8.25;48.39
9746;BME280;4912;50.836;12.958;2024-01-30T07:29:49;99075.47;;;8.39;47.48
9746;BME280;4912;50.836;12.958;2024-01-30T07:32:19;99064.19;;;8.53;46.97
9746;BME280;4912;50.836;12.958;2024-01-30T07:34:51;99065.44;;;8.69;45.67
9746;BME280;4912;50.836;12.958;2024-01-30T07:37:34;99057.25;;;8.65;45.28
9746;BME280;4912;50.836;12.958;2024-01-30T07:40:08;99068.28;;;8.65;45.39
9746;BME280;4912;50.836;12.958;2024-01-30T07:42:39;99080.38;;;8.71;45.28
9746;BME280;4912;50.836;12.958;2024-01-30T07:45:10;99090.78;;;8.83;45.46
9746;BME280;4912;50.836;12.958;2024-01-30T07:47:41;99090.47;;;8.78;44.85
9746;BME280;4912;50.836;12.958;2024-01-30T07:50:12;99083.56;;;8.89;44.86
9746;BME280;4912;50.836;12.958;2024-01-30T07:52:42;99081.78;;;8.99;44.83
9746;BME280;4912;50.836;12.958;2024-01-30T07:55:18;99087.34;;;9.15;44.90
9746;BME280;4912;50.836;12.958;2024-01-30T07:57:52;99088.41;;;9.21;45.48
9746;BME280;4912;50.836;12.958;2024-01-30T08:00:23;99090.59;;;9.30;45.61
9746;BME280;4912;50.836;12.958;2024-01-30T08:02:54;99092.19;;;9.47;44.43
9746;BME280;4912;50.836;12.958;2024-01-30T08:05:26;99091.69;;;9.52;43.78
9746;BME280;4912;50.836;12.958;2024-01-30T08:07:57;99088.31;;;9.61;44.59
9746;BME280;4912;50.836;12.958;2024-01-30T08:10:30;99083.81;;;9.51;47.10
9746;BME280;4912;50.836;12.958;2024-01-30T08:13:01;99086.16;;;9.52;46.44
9746;BME280;4912;50.836;12.958;2024-01-30T08:15:32;99075.00;;;9.56;45.77
9746;BME280;4912;50.836;12.958;2024-01-30T08:18:03;99073.28;;;9.62;44.14
9746;BME280;4912;50.836;12.958;2024-01-30T08:20:34;99070.63;;;9.74;43.38
9746;BME280;4912;50.836;12.958;2024-01-30T08:23:05;99058.53;;;10.01;42.88
9746;BME280;4912;50.836;12.958;2024-01-30T08:25:38;99062.75;;;10.05;42.89
9746;BME280;4912;50.836;12.958;2024-01-30T08:28:08;99061.19;;;10.04;43.28
9746;BME280;4912;50.836;12.958;2024-01-30T08:30:39;99059.47;;;10.10;42.78
9746;BME280;4912;50.836;12.958;2024-01-30T08:33:10;99066.31;;;10.22;42.66
9746;BME280;4912;50.836;12.958;2024-01-30T08:35:41;99050.97;;;10.34;41.98
9746;BME280;4912;50.836;12.958;2024-01-30T08:38:11;99056.75;;;10.39;41.78
9746;BME280;4912;50.836;12.958;2024-01-30T08:40:45;99052.66;;;10.60;41.86
9746;BME280;4912;50.836;12.958;2024-01-30T08:43:15;99057.09;;;10.70;41.28
9746;BME280;4912;50.836;12.958;2024-01-30T08:45:46;99055.16;;;10.83;40.98
9746;BME280;4912;50.836;12.958;2024-01-30T08:48:17;99053.34;;;11.18;40.43
9746;BME280;4912;50.836;12.958;2024-01-30T08:50:48;99054.00;;;11.85;39.06
9746;BME280;4912;50.836;12.958;2024-01-30T08:53:19;99046.59;;;12.29;37.86
9746;BME280;4912;50.836;12.958;2024-01-30T08:55:52;99054.13;;;12.29;37.67
9746;BME280;4912;50.836;12.958;2024-01-30T08:58:26;99050.38;;;12.23;37.88
9746;BME280;4912;50.836;12.958;2024-01-30T09:00:57;99048.75;;;12.13;36.58
9746;BME280;4912;50.836;12.958;2024-01-30T09:03:27;99052.81;;;12.21;37.07
9746;BME280;4912;50.836;12.958;2024-01-30T09:05:58;99056.66;;;12.36;36.24
9746;BME280;4912;50.836;12.958;2024-01-30T09:08:29;99047.78;;;12.63;36.38
9746;BME280;4912;50.836;12.958;2024-01-30T09:11:02;99046.63;;;12.95;35.83
9746;BME280;4912;50.836;12.958;2024-01-30T09:13:38;99056.19;;;12.94;35.28
9746;BME280;4912;50.836;12.958;2024-01-30T09:16:10;99056.28;;;12.90;34.99
9746;BME280;4912;50.836;12.958;2024-01-30T09:18:43;99051.53;;;13.13;34.39
9746;BME280;4912;50.836;12.958;2024-01-30T09:21:13;99057.31;;;13.67;34.15
9746;BME280;4912;50.836;12.958;2024-01-30T09:23:44;99055.13;;;14.20;32.74
9746;BME280;4912;50.836;12.958;2024-01-30T09:26:17;99053.94;;;14.76;31.66
9746;BME280;4912;50.836;12.958;2024-01-30T09:28:52;99057.84;;;14.60;31.93
9746;BME280;4912;50.836;12.958;2024-01-30T09:31:23;99048.06;;;14.65;31.85
9746;BME280;4912;50.836;12.958;2024-01-30T09:33:54;99042.50;;;14.56;31.63
9746;BME280;4912;50.836;12.958;2024-01-30T09:36:25;99040.97;;;14.55;32.04
9746;BME280;4912;50.836;12.958;2024-01-30T09:38:56;99040.28;;;14.96;31.67
9746;BME280;4912;50.836;12.958;2024-01-30T09:41:32;99039.50;;;15.05;30.25
9746;BME280;4912;50.836;12.958;2024-01-30T09:44:04;99044.69;;;15.30;29.78
9746;BME280;4912;50.836;12.958;2024-01-30T09:46:36;99048.03;;;15.43;28.88
9746;BME280;4912;50.836;12.958;2024-01-30T09:49:08;99052.44;;;15.35;28.50
9746;BME280;4912;50.836;12.958;2024-01-30T09:51:40;99046.03;;;15.53;29.16
9746;BME280;4912;50.836;12.958;2024-01-30T09:54:13;99045.41;;;15.58;28.41
9746;BME280;4912;50.836;12.958;2024-01-30T09:56:47;99042.13;;;15.50;28.42
9746;BME280;4912;50.836;12.958;2024-01-30T09:59:18;99048.59;;;15.14;28.78
9746;BME280;4912;50.836;12.958;2024-01-30T10:01:50;99038.72;;;15.13;29.10
9746;BME280;4912;50.836;12.958;2024-01-30T10:04:21;99040.22;;;15.24;29.57
9746;BME280;4912;50.836;12.958;2024-01-30T10:06:52;99036.13;;;15.43;29.30
9746;BME280;4912;50.836;12.958;2024-01-30T10:09:23;99033.94;;;15.47;28.66
9746;BME280;4912;50.836;12.958;2024-01-30T10:11:55;99030.97;;;15.50;28.82
9746;BME280;4912;50.836;12.958;2024-01-30T10:14:28;99029.59;;;15.55;28.76
9746;BME280;4912;50.836;12.958;2024-01-30T10:16:59;99033.63;;;15.45;28.71
9746;BME280;4912;50.836;12.958;2024-01-30T10:19:43;99032.00;;;15.29;28.66
9746;BME280;4912;50.836;12.958;2024-01-30T10:22:14;99034.09;;;15.01;29.13
9746;BME280;4912;50.836;12.958;2024-01-30T10:24:46;99028.22;;;14.99;29.76
9746;BME280;4912;50.836;12.958;2024-01-30T10:27:26;99023.94;;;15.31;30.30
9746;BME280;4912;50.836;12.958;2024-01-30T10:29:58;99024.91;;;15.61;29.72
9746;BME280;4912;50.836;12.958;2024-01-30T10:32:28;99026.13;;;15.93;28.97
9746;BME280;4912;50.836;12.958;2024-01-30T10:34:59;99027.44;;;16.07;28.85
9746;BME280;4912;50.836;12.958;2024-01-30T10:37:31;99025.13;;;16.05;28.84
9746;BME280;4912;50.836;12.958;2024-01-30T10:40:04;99017.09;;;15.98;29.41
9746;BME280;4912;50.836;12.958;2024-01-30T10:42:42;99018.75;;;15.81;29.05
9746;BME280;4912;50.836;12.958;2024-01-30T10:45:14;99014.59;;;15.76;29.06
9746;BME280;4912;50.836;12.958;2024-01-30T10:47:49;99007.19;;;15.97;29.30
9746;BME280;4912;50.836;12.958;2024-01-30T10:50:21;99004.16;;;16.10;28.95
9746;BME280;4912;50.836;12.958;2024-01-30T10:52:54;99000.09;;;16.34;29.07
9746;BME280;4912;50.836;12.958;2024-01-30T10:55:26;99006.66;;;16.46;28.57
9746;BME280;4912;50.836;12.958;2024-01-30T10:58:02;98999.53;;;16.45;28.52
9746;BME280;4912;50.836;12.958;2024-01-30T11:00:37;98996.22;;;16.85;28.32
9746;BME280;4912;50.836;12.958;2024-01-30T11:03:09;98994.03;;;16.89;28.01
9746;BME280;4912;50.836;12.958;2024-01-30T11:05:41;98994.09;;;16.65;28.69
9746;BME280;4912;50.836;12.958;2024-01-30T11:08:12;98994.88;;;16.66;28.66
9746;BME280;4912;50.836;12.958;2024-01-30T11:10:46;98989.09;;;16.69;28.81
9746;BME280;4912;50.836;12.958;2024-01-30T11:13:21;98986.59;;;16.71;29.16
9746;BME280;4912;50.836;12.958;2024-01-30T11:15:52;98992.00;;;16.60;29.62
9746;BME280;4912;50.836;12.958;2024-01-30T11:18:23;98984.75;;;16.68;29.68
9746;BME280;4912;50.836;12.958;2024-01-30T11:20:56;98983.31;;;16.88;30.15
9746;BME280;4912;50.836;12.958;2024-01-30T11:23:30;98973.47;;;17.07;30.50
9746;BME280;4912;50.836;12.958;2024-01-30T11:26:04;98977.78;;;17.37;30.45
9746;BME280;4912;50.836;12.958;2024-01-30T11:28:41;98978.22;;;17.50;30.30
9746;BME280;4912;50.836;12.958;2024-01-30T11:31:18;98973.19;;;17.54;31.42
9746;BME280;4912;50.836;12.958;2024-01-30T11:33:52;98963.13;;;17.28;31.86
9746;BME280;4912;50.836;12.958;2024-01-30T11:36:25;98972.88;;;17.03;32.78
9746;BME280;4912;50.836;12.958;2024-01-30T11:39:01;98980.03;;;16.89;33.34
9746;BME280;4912;50.836;12.958;2024-01-30T11:41:32;98981.69;;;16.81;34.37
9746;BME280;4912;50.836;12.958;2024-01-30T11:44:07;98979.47;;;16.70;35.29
9746;BME280;4912;50.836;12.958;2024-01-30T11:46:38;98995.78;;;16.10;39.17
9746;BME280;4912;50.836;12.958;2024-01-30T11:49:10;98976.84;;;15.66;40.40
9746;BME280;4912;50.836;12.958;2024-01-30T11:51:41;98981.34;;;15.64;40.94
9746;BME280;4912;50.836;12.958;2024-01-30T11:54:11;98974.53;;;15.65;41.60
9746;BME280;4912;50.836;12.958;2024-01-30T11:56:42;98972.19;;;15.63;41.97
9746;BME280;4912;50.836;12.958;2024-01-30T11:59:16;98973.94;;;15.61;42.07
9746;BME280;4912;50.836;12.958;2024-01-30T12:01:47;98982.25;;;15.37;42.97
9746;BME280;4912;50.836;12.958;2024-01-30T12:04:18;98965.44;;;15.13;43.88
9746;BME280;4912;50.836;12.958;2024-01-30T12:06:51;98966.78;;;15.27;44.00
9746;BME280;4912;50.836;12.958;2024-01-30T12:09:22;98961.88;;;15.45;43.56
9746;BME280;4912;50.836;12.958;2024-01-30T12:11:54;98968.25;;;15.46;43.52
9746;BME280;4912;50.836;12.958;2024-01-30T12:14:28;98965.84;;;15.30;44.10
9746;BME280;4912;50.836;12.958;2024-01-30T12:16:59;98962.28;;;15.29;44.25
9746;BME280;4912;50.836;12.958;2024-01-30T12:19:30;98956.47;;;15.09;44.94
9746;BME280;4912;50.836;12.958;2024-01-30T12:22:04;98955.75;;;14.99;45.32
9746;BME280;4912;50.836;12.958;2024-01-30T12:24:35;98954.03;;;15.35;44.67
9746;BME280;4912;50.836;12.958;2024-01-30T12:27:05;98955.53;;;15.54;44.25
9746;BME280;4912;50.836;12.958;2024-01-30T12:29:41;98948.34;;;15.62;44.00
9746;BME280;4912;50.836;12.958;2024-01-30T12:32:15;98960.09;;;15.66;43.77
9746;BME280;4912;50.836;12.958;2024-01-30T12:34:46;98954.88;;;15.83;43.86
9746;BME280;4912;50.836;12.958;2024-01-30T12:37:27;98950.44;;;16.15;42.85
9746;BME280;4912;50.836;12.958;2024-01-30T12:39:58;98948.53;;;16.21;42.72
9746;BME280;4912;50.836;12.958;2024-01-30T12:42:29;98955.09;;;16.18;42.77
9746;BME280;4912;50.836;12.958;2024-01-30T12:45:08;98942.50;;;16.52;42.19
9746;BME280;4912;50.836;12.958;2024-01-30T12:47:39;98933.00;;;16.88;41.33
9746;BME280;4912;50.836;12.958;2024-01-30T12:50:11;98931.00;;;17.23;40.65
9746;BME280;4912;50.836;12.958;2024-01-30T12:52:43;98932.66;;;17.15;40.64
9746;BME280;4912;50.836;12.958;2024-01-30T12:55:16;98936.16;;;17.10;40.85
9746;BME280;4912;50.836;12.958;2024-01-30T12:57:47;98935.22;;;17.33;40.32
9746;BME280;4912;50.836;12.958;2024-01-30T13:00:21;98941.28;;;17.46;39.84
9746;BME280;4912;50.836;12.958;2024-01-30T13:02:54;98932.97;;;17.17;40.49
9746;BME280;4912;50.836;12.958;2024-01-30T13:05:25;98934.22;;;17.16;40.83
9746;BME280;4912;50.836;12.958;2024-01-30T13:07:56;98926.06;;;16.83;41.34
9746;BME280;4912;50.836;12.958;2024-01-30T13:10:27;98940.00;;;16.98;41.32
9746;BME280;4912;50.836;12.958;2024-01-30T13:12:58;98928.25;;;16.79;41.65
9746;BME280;4912;50.836;12.958;2024-01-30T13:15:32;98933.25;;;16.31;42.66
9746;BME280;4912;50.836;12.958;2024-01-30T13:18:04;98923.91;;;16.34;43.15
9746;BME280;4912;50.836;12.958;2024-01-30T13:20:35;98927.38;;;16.58;42.68
9746;BME280;4912;50.836;12.958;2024-01-30T13:23:06;98929.09;;;16.41;43.18
9746;BME280;4912;50.836;12.958;2024-01-30T13:25:41;98929.28;;;16.23;43.38
9746;BME280;4912;50.836;12.958;2024-01-30T13:28:12;98930.63;;;16.13;44.05
9746;BME280;4912;50.836;12.958;2024-01-30T13:30:45;98932.59;;;15.97;44.54
9746;BME280;4912;50.836;12.958;2024-01-30T13:33:16;98922.75;;;15.87;44.47
9746;BME280;4912;50.836;12.958;2024-01-30T13:35:50;98917.06;;;15.58;45.24
9746;BME280;4912;50.836;12.958;2024-01-30T13:38:21;98926.59;;;15.42;45.66
9746;BME280;4912;50.836;12.958;2024-01-30T13:40:51;98927.31;;;15.19;46.33
9746;BME280;4912;50.836;12.958;2024-01-30T13:43:22;98914.97;;;15.11;46.83